createdAt,value
2022-11-01T00:02:06.465Z,2.95
2022-11-01T00:04:34.311Z,3.75
2022-11-01T00:07:02.056Z,3.63
2022-11-01T00:09:29.810Z,3.10
2022-11-01T00:11:57.546Z,3.30
2022-11-01T00:14:25.308Z,3.17
2022-11-01T00:16:53.151Z,2.97
2022-11-01T00:19:22.539Z,3.55
2022-11-01T00:21:51.176Z,3.67
2022-11-01T00:24:18.929Z,3.20
2022-11-01T00:29:19.760Z,3.38
2022-11-01T00:31:47.500Z,3.28
2022-11-01T00:34:16.383Z,3.20
2022-11-01T00:36:45.490Z,3.38
2022-11-01T00:39:15.510Z,3.50
2022-11-01T00:41:43.698Z,3.58
2022-11-01T00:44:11.495Z,3.28
2022-11-01T00:46:39.794Z,3.35
2022-11-01T00:49:07.521Z,3.05
2022-11-01T00:51:35.226Z,3.42
2022-11-01T00:54:04.838Z,3.20
2022-11-01T00:56:32.581Z,2.97
2022-11-01T00:59:00.258Z,2.88
2022-11-01T01:01:28.070Z,3.08
2022-11-01T01:03:55.943Z,3.38
2022-11-01T01:06:23.710Z,2.72
2022-11-01T01:08:51.516Z,2.70
2022-11-01T01:11:20.674Z,3.00
2022-11-01T01:13:48.443Z,2.63
2022-11-01T01:16:16.207Z,3.35
2022-11-01T01:18:43.980Z,2.53
2022-11-01T01:21:13.864Z,3.22
2022-11-01T01:23:43.847Z,2.90
2022-11-01T01:26:12.550Z,3.20
2022-11-01T01:28:44.518Z,2.85
2022-11-01T01:31:14.204Z,2.72
2022-11-01T01:33:42.417Z,2.78
2022-11-01T01:36:10.446Z,2.83
2022-11-01T01:38:38.324Z,3.40
2022-11-01T01:41:24.265Z,2.90
2022-11-01T01:43:53.474Z,3.33
2022-11-01T01:46:21.187Z,2.85
2022-11-01T01:48:56.598Z,2.97
2022-11-01T01:51:29.107Z,2.97
2022-11-01T01:54:00.350Z,2.53
2022-11-01T01:56:33.478Z,2.55
2022-11-01T01:59:07.780Z,2.63
2022-11-01T02:01:40.706Z,2.38
2022-11-01T02:04:19.331Z,2.42
2022-11-01T02:06:48.738Z,3.55
2022-11-01T02:09:18.136Z,3.35
2022-11-01T02:11:46.131Z,2.65
2022-11-01T02:14:17.493Z,2.22
2022-11-01T02:16:56.010Z,2.95
2022-11-01T02:20:19.252Z,2.17
2022-11-01T02:23:22.241Z,2.13
2022-11-01T02:26:18.862Z,2.17
2022-11-01T02:29:11.539Z,2.20
2022-11-01T02:32:07.957Z,1.67
2022-11-01T02:34:45.942Z,2.20
2022-11-01T02:37:24.532Z,1.75
2022-11-01T02:39:58.804Z,1.83
2022-11-01T02:42:33.540Z,1.52
2022-11-01T02:45:09.740Z,1.98
2022-11-01T02:47:41.414Z,1.80
2022-11-01T02:50:12.429Z,1.50
2022-11-01T02:52:42.583Z,2.00
2022-11-01T02:55:29.789Z,1.88
2022-11-01T02:58:01.529Z,1.65
2022-11-01T03:00:33.304Z,1.75
2022-11-01T03:03:14.355Z,2.25
2022-11-01T03:06:09.164Z,2.60
2022-11-01T03:08:44.056Z,2.45
2022-11-01T03:11:16.868Z,2.42
2022-11-01T03:13:58.226Z,2.20
2022-11-01T03:16:34.520Z,2.80
2022-11-01T03:19:22.735Z,3.30
2022-11-01T03:22:00.005Z,2.70
2022-11-01T03:24:32.844Z,2.45
2022-11-01T03:27:08.301Z,2.13
2022-11-01T03:29:39.084Z,2.88
2022-11-01T03:32:09.506Z,2.63
2022-11-01T03:34:41.611Z,2.30
2022-11-01T03:37:13.221Z,3.20
2022-11-01T03:39:47.669Z,2.95
2022-11-01T03:42:20.789Z,2.63
2022-11-01T03:44:55.040Z,3.17
2022-11-01T03:47:23.625Z,2.33
2022-11-01T03:50:15.694Z,2.58
2022-11-01T03:52:44.152Z,2.78
2022-11-01T03:55:29.395Z,2.60
2022-11-01T03:57:59.533Z,2.33
2022-11-01T04:00:30.407Z,2.67
2022-11-01T04:03:00.271Z,2.30
2022-11-01T04:05:32.973Z,2.33
2022-11-01T04:08:01.105Z,3.03
2022-11-01T04:10:30.003Z,1.77
2022-11-01T04:13:02.245Z,2.78
2022-11-01T04:15:47.996Z,2.72
2022-11-01T04:18:36.847Z,2.50
2022-11-01T04:21:10.037Z,1.98
2022-11-01T04:23:38.542Z,2.40
2022-11-01T04:26:08.309Z,2.38
2022-11-01T04:28:36.571Z,2.30
2022-11-01T04:31:05.823Z,2.60
2022-11-01T04:33:34.085Z,2.35
2022-11-01T04:36:07.504Z,2.40
2022-11-01T04:38:35.363Z,2.28
2022-11-01T04:41:03.099Z,2.50
2022-11-01T04:43:30.920Z,2.80
2022-11-01T04:45:58.984Z,2.53
2022-11-01T04:48:27.612Z,2.33
2022-11-01T04:50:55.380Z,2.80
2022-11-01T04:53:24.476Z,2.53
2022-11-01T04:55:52.205Z,2.42
2022-11-01T04:58:19.971Z,2.40
2022-11-01T05:00:47.901Z,2.30
2022-11-01T05:03:15.852Z,2.05
2022-11-01T05:05:43.580Z,2.03
2022-11-01T05:08:13.575Z,2.20
2022-11-01T05:10:45.488Z,2.00
2022-11-01T05:13:14.502Z,1.55
2022-11-01T05:15:53.620Z,1.90
2022-11-01T05:18:30.775Z,2.22
2022-11-01T05:20:58.710Z,1.90
2022-11-01T05:23:26.460Z,1.48
2022-11-01T05:25:55.545Z,1.55
2022-11-01T05:28:23.628Z,1.52
2022-11-01T05:30:51.594Z,1.73
2022-11-01T05:33:19.340Z,2.13
2022-11-01T05:35:47.093Z,2.00
2022-11-01T05:38:14.808Z,1.63
2022-11-01T05:40:42.528Z,2.50
2022-11-01T05:43:11.616Z,1.42
2022-11-01T05:45:39.407Z,1.67
2022-11-01T05:48:08.414Z,1.52
2022-11-01T05:50:36.121Z,1.05
2022-11-01T05:53:08.755Z,1.40
2022-11-01T05:55:37.625Z,1.13
2022-11-01T05:58:06.322Z,0.90
2022-11-01T06:00:36.152Z,1.60
2022-11-01T06:03:05.438Z,2.17
2022-11-01T06:05:34.642Z,1.73
2022-11-01T06:08:04.096Z,2.05
2022-11-01T06:10:33.063Z,1.90
2022-11-01T06:13:01.279Z,2.45
2022-11-01T06:15:29.801Z,1.90
2022-11-01T06:18:00.459Z,2.05
2022-11-01T06:20:30.569Z,2.72
2022-11-01T06:22:58.934Z,2.42
2022-11-01T06:25:28.402Z,2.38
2022-11-01T06:27:56.160Z,2.22
2022-11-01T06:30:24.162Z,2.20
2022-11-01T06:32:52.332Z,2.33
2022-11-01T06:35:21.433Z,2.05
2022-11-01T06:37:49.163Z,2.45
2022-11-01T06:40:16.925Z,2.28
2022-11-01T06:42:46.509Z,2.42
2022-11-01T06:45:14.730Z,3.53
2022-11-01T06:47:47.903Z,3.42
2022-11-01T06:50:15.860Z,2.40
2022-11-01T06:52:44.960Z,2.10
2022-11-01T06:55:12.804Z,2.80
2022-11-01T06:57:40.540Z,2.28
2022-11-01T07:00:11.144Z,2.60
2022-11-01T07:02:39.175Z,2.28
2022-11-01T07:05:08.551Z,1.90
2022-11-01T07:07:36.332Z,2.25
2022-11-01T07:10:06.367Z,1.85
2022-11-01T07:12:34.087Z,2.00
2022-11-01T07:15:01.830Z,1.95
2022-11-01T07:17:29.558Z,2.55
2022-11-01T07:19:57.294Z,2.22
2022-11-01T07:22:25.072Z,2.47
2022-11-01T07:24:52.787Z,2.53
2022-11-01T07:27:22.165Z,2.17
2022-11-01T07:29:49.904Z,2.92
2022-11-01T07:32:17.689Z,2.42
2022-11-01T07:34:45.793Z,2.17
2022-11-01T07:37:13.645Z,2.28
2022-11-01T07:39:41.459Z,2.13
2022-11-01T07:42:09.171Z,2.03
2022-11-01T07:44:38.362Z,1.80
2022-11-01T07:47:06.199Z,2.05
2022-11-01T07:49:33.921Z,2.05
2022-11-01T07:52:04.095Z,1.80
2022-11-01T07:54:31.869Z,1.90
2022-11-01T07:56:59.613Z,2.42
2022-11-01T07:59:27.356Z,2.03
2022-11-01T08:01:56.674Z,2.33
2022-11-01T08:04:24.515Z,1.90
2022-11-01T08:06:52.509Z,2.28
2022-11-01T08:09:22.123Z,2.38
2022-11-01T08:11:49.931Z,2.53
2022-11-01T08:14:17.702Z,1.35
2022-11-01T08:16:49.393Z,1.92
2022-11-01T08:19:18.478Z,2.13
2022-11-01T08:21:46.215Z,2.22
2022-11-01T08:24:14.029Z,2.10
2022-11-01T08:26:41.741Z,2.20
2022-11-01T08:29:09.892Z,2.58
2022-11-01T08:31:40.515Z,2.10
2022-11-01T08:34:10.916Z,1.52
2022-11-01T08:36:44.606Z,1.73
2022-11-01T08:39:12.686Z,1.63
2022-11-01T08:41:40.452Z,1.60
2022-11-01T08:44:08.147Z,1.58
2022-11-01T08:46:35.875Z,1.67
2022-11-01T08:49:03.659Z,1.88
2022-11-01T08:51:32.594Z,2.10
2022-11-01T08:54:01.752Z,2.60
2022-11-01T08:56:29.970Z,2.13
2022-11-01T08:58:57.912Z,2.20
2022-11-01T09:01:26.980Z,2.08
2022-11-01T09:03:58.034Z,2.03
2022-11-01T09:06:28.973Z,1.77
2022-11-01T09:08:59.175Z,1.77
2022-11-01T09:11:30.386Z,1.75
2022-11-01T09:13:58.709Z,1.90
2022-11-01T09:16:26.648Z,2.00
2022-11-01T09:18:54.336Z,2.03
2022-11-01T09:21:22.090Z,1.25
2022-11-01T09:23:49.980Z,1.60
2022-11-01T09:26:18.733Z,1.73
2022-11-01T09:28:47.808Z,1.13
2022-11-01T09:31:20.783Z,1.63
2022-11-01T09:33:49.176Z,1.93
2022-11-01T09:36:17.084Z,1.90
2022-11-01T09:38:45.310Z,1.85
2022-11-01T09:41:28.971Z,1.20
2022-11-01T09:44:02.172Z,1.80
2022-11-01T09:46:42.042Z,1.42
2022-11-01T09:49:14.716Z,1.75
2022-11-01T09:51:42.463Z,1.30
2022-11-01T09:54:11.700Z,1.58
2022-11-01T09:56:46.194Z,1.55
2022-11-01T10:02:09.732Z,1.55
2022-11-01T10:05:17.793Z,1.45
2022-11-01T10:08:01.971Z,1.80
2022-11-01T10:10:40.488Z,1.77
2022-11-01T10:13:36.539Z,1.27
2022-11-01T10:16:16.252Z,1.58
2022-11-01T10:18:55.755Z,1.75
2022-11-01T10:21:29.635Z,1.60
2022-11-01T10:24:01.729Z,1.00
2022-11-01T10:26:31.985Z,1.35
2022-11-01T10:29:08.893Z,1.40
2022-11-01T10:31:46.650Z,1.63
2022-11-01T10:34:23.928Z,1.40
2022-11-01T10:36:54.032Z,1.15
2022-11-01T10:39:54.120Z,1.15
2022-11-01T10:42:24.450Z,2.25
2022-11-01T10:44:59.522Z,2.00
2022-11-01T10:47:29.867Z,1.45
2022-11-01T10:50:06.647Z,2.20
2022-11-01T10:52:48.381Z,1.88
2022-11-01T10:55:24.027Z,1.40
2022-11-01T10:57:58.511Z,1.45
2022-11-01T11:02:59.040Z,0.95
2022-11-01T11:05:30.658Z,2.05
2022-11-01T11:07:58.634Z,1.25
2022-11-01T11:10:29.963Z,1.33
2022-11-01T11:13:04.587Z,0.90
2022-11-01T11:15:43.951Z,1.33
2022-11-01T11:18:24.598Z,1.30
2022-11-01T11:20:57.260Z,1.50
2022-11-01T11:23:30.364Z,1.33
2022-11-01T11:26:03.478Z,1.30
2022-11-01T11:28:38.729Z,1.65
2022-11-01T11:31:22.288Z,1.80
2022-11-01T11:33:55.832Z,1.90
2022-11-01T11:36:32.369Z,0.85
2022-11-01T11:39:01.658Z,1.17
2022-11-01T11:41:32.894Z,1.80
2022-11-01T11:44:01.198Z,1.38
2022-11-01T11:46:29.836Z,1.70
2022-11-01T11:49:04.336Z,1.35
2022-11-01T11:54:26.842Z,1.35
2022-11-01T11:57:11.502Z,1.38
2022-11-01T11:59:42.055Z,1.48
2022-11-01T12:02:21.379Z,1.70
2022-11-01T12:04:58.652Z,1.17
2022-11-01T12:07:31.615Z,1.25
2022-11-01T12:10:03.182Z,1.73
2022-11-01T12:12:34.758Z,1.08
2022-11-01T12:15:04.277Z,1.48
2022-11-01T12:17:44.258Z,1.30
2022-11-01T12:20:20.226Z,1.50
2022-11-01T12:23:07.347Z,1.80
2022-11-01T12:25:38.149Z,1.33
2022-11-01T12:28:18.090Z,1.52
2022-11-01T12:30:49.164Z,5.35
2022-11-01T12:33:28.584Z,3.35
2022-11-01T12:35:59.700Z,2.58
2022-11-01T12:38:43.795Z,3.35
2022-11-01T12:41:26.801Z,2.10
2022-11-01T12:44:25.448Z,1.93
2022-11-01T12:47:01.168Z,1.65
2022-11-01T12:49:37.500Z,2.08
2022-11-01T12:52:18.872Z,1.55
2022-11-01T12:54:59.754Z,1.75
2022-11-01T12:57:27.599Z,1.80
2022-11-01T12:59:55.346Z,2.00
2022-11-01T13:02:59.716Z,1.67
2022-11-01T13:05:43.987Z,1.52
2022-11-01T13:08:28.687Z,1.15
2022-11-01T13:11:03.384Z,1.67
2022-11-01T13:13:43.999Z,1.45
2022-11-01T13:16:20.319Z,1.52
2022-11-01T13:18:57.119Z,2.17
2022-11-01T13:21:36.956Z,1.67
2022-11-01T13:24:17.586Z,2.00
2022-11-01T13:26:53.012Z,1.67
2022-11-01T13:29:36.201Z,1.42
2022-11-01T13:32:15.888Z,1.15
2022-11-01T13:35:03.164Z,1.40
2022-11-01T13:37:43.491Z,2.10
2022-11-01T13:40:27.894Z,1.65
2022-11-01T13:43:05.109Z,1.33
2022-11-01T13:46:25.368Z,1.67
2022-11-01T13:49:37.513Z,1.30
2022-11-01T13:52:16.724Z,1.67
2022-11-01T13:54:56.294Z,1.50
2022-11-01T13:57:28.053Z,1.63
2022-11-01T13:59:59.681Z,0.90
2022-11-01T14:02:57.031Z,1.73
2022-11-01T14:05:38.915Z,1.75
2022-11-01T14:08:40.149Z,1.15
2022-11-01T14:11:12.523Z,1.60
2022-11-01T14:13:45.642Z,2.00
2022-11-01T14:16:23.640Z,1.83
2022-11-01T14:19:25.081Z,1.98
2022-11-01T14:21:54.820Z,1.70
2022-11-01T14:24:34.923Z,1.85
2022-11-01T14:27:35.612Z,1.67
2022-11-01T14:30:15.374Z,1.77
2022-11-01T14:32:49.075Z,1.75
2022-11-01T14:35:26.161Z,1.35
2022-11-01T14:38:02.613Z,1.67
2022-11-01T14:40:37.787Z,2.25
2022-11-01T14:43:18.388Z,2.10
2022-11-01T14:45:55.056Z,1.13
2022-11-01T14:48:30.984Z,1.70
2022-11-01T14:51:07.432Z,2.00
2022-11-01T14:55:15.240Z,1.45
2022-11-01T14:57:43.353Z,1.67
2022-11-01T15:00:28.525Z,1.65
2022-11-01T15:05:32.181Z,1.42
2022-11-01T15:08:00.551Z,2.17
2022-11-01T15:10:42.188Z,1.80
2022-11-01T15:13:16.680Z,1.60
2022-11-01T15:15:52.520Z,2.20
2022-11-01T15:18:22.103Z,1.92
2022-11-01T15:20:54.579Z,1.95
2022-11-01T15:23:31.479Z,1.98
2022-11-01T15:26:07.829Z,2.10
2022-11-01T15:28:42.090Z,1.73
2022-11-01T15:31:10.835Z,1.40
2022-11-01T15:33:39.814Z,1.42
2022-11-01T15:36:22.234Z,2.17
2022-11-01T15:43:29.203Z,2.17
2022-11-01T15:46:00.377Z,2.45
2022-11-01T15:48:34.282Z,1.70
2022-11-01T15:51:06.826Z,1.58
2022-11-01T15:53:39.516Z,1.60
2022-11-01T15:56:15.022Z,1.83
2022-11-01T15:58:52.008Z,1.95
2022-11-01T16:01:24.195Z,1.65
2022-11-01T16:04:01.864Z,1.58
2022-11-01T16:06:40.428Z,1.20
2022-11-01T16:09:20.119Z,1.42
2022-11-01T16:11:49.498Z,1.73
2022-11-01T16:14:28.351Z,2.00
2022-11-01T16:16:58.004Z,1.23
2022-11-01T16:19:36.947Z,2.17
2022-11-01T16:22:23.258Z,1.55
2022-11-01T16:25:00.627Z,1.65
2022-11-01T16:27:28.797Z,2.05
2022-11-01T16:30:08.206Z,2.33
2022-11-01T16:32:36.551Z,1.77
2022-11-01T16:35:31.909Z,1.58
2022-11-01T16:38:00.099Z,1.60
2022-11-01T16:40:31.612Z,1.83
2022-11-01T16:43:00.603Z,1.85
2022-11-01T16:45:30.060Z,1.77
2022-11-01T16:47:58.654Z,1.77
2022-11-01T16:50:26.427Z,2.05
2022-11-01T16:52:54.559Z,1.83
2022-11-01T16:55:25.485Z,1.92
2022-11-01T16:57:56.181Z,1.25
2022-11-01T17:00:24.193Z,1.85
2022-11-01T17:02:55.831Z,1.95
2022-11-01T17:05:24.427Z,1.92
2022-11-01T17:07:52.259Z,1.65
2022-11-01T17:10:23.957Z,1.38
2022-11-01T17:12:52.820Z,1.38
2022-11-01T17:15:20.590Z,1.67
2022-11-01T17:17:51.061Z,1.85
2022-11-01T17:20:27.332Z,1.85
2022-11-01T17:22:56.805Z,1.70
2022-11-01T17:25:29.682Z,2.17
2022-11-01T17:28:00.278Z,1.30
2022-11-01T17:30:28.225Z,1.70
2022-11-01T17:32:55.952Z,1.00
2022-11-01T17:35:26.787Z,2.00
2022-11-01T17:37:56.258Z,1.98
2022-11-01T17:40:26.037Z,1.55
2022-11-01T17:42:54.165Z,1.80
2022-11-01T17:45:23.921Z,2.30
2022-11-01T17:47:54.348Z,1.80
2022-11-01T17:50:24.595Z,2.13
2022-11-01T17:52:52.768Z,2.33
2022-11-01T17:55:20.480Z,2.33
2022-11-01T17:57:48.535Z,2.55
2022-11-01T18:00:16.928Z,2.50
2022-11-01T18:02:44.733Z,1.88
2022-11-01T18:05:13.725Z,2.80
2022-11-01T18:07:45.348Z,1.70
2022-11-01T18:10:19.213Z,2.03
2022-11-01T18:13:06.534Z,2.13
2022-11-01T18:15:41.125Z,2.00
2022-11-01T18:18:35.400Z,2.28
2022-11-01T18:21:18.846Z,2.33
2022-11-01T18:23:50.985Z,2.80
2022-11-01T18:26:22.831Z,2.42
2022-11-01T18:28:54.787Z,2.58
2022-11-01T18:31:30.948Z,2.80
2022-11-01T18:34:08.715Z,2.17
2022-11-01T18:36:50.500Z,2.35
2022-11-01T18:39:32.984Z,2.20
2022-11-01T18:42:03.388Z,2.15
2022-11-01T18:44:31.288Z,2.42
2022-11-01T18:47:07.543Z,2.40
2022-11-01T18:49:35.214Z,2.63
2022-11-01T18:52:04.438Z,2.30
2022-11-01T18:54:36.202Z,2.10
2022-11-01T18:57:17.053Z,2.28
2022-11-01T18:59:49.333Z,1.88
2022-11-01T19:02:21.267Z,1.65
2022-11-01T19:04:52.852Z,2.28
2022-11-01T19:07:24.106Z,2.40
2022-11-01T19:09:57.027Z,2.28
2022-11-01T19:12:29.567Z,2.38
2022-11-01T19:15:02.951Z,2.58
2022-11-01T19:17:38.117Z,2.58
2022-11-01T19:20:23.648Z,1.77
2022-11-01T19:22:54.518Z,2.47
2022-11-01T19:25:27.322Z,2.17
2022-11-01T19:27:58.371Z,2.17
2022-11-01T19:30:29.528Z,1.92
2022-11-01T19:33:07.571Z,1.73
2022-11-01T19:35:35.422Z,2.97
2022-11-01T19:38:03.423Z,2.17
2022-11-01T19:40:35.805Z,2.00
2022-11-01T19:43:14.738Z,1.85
2022-11-01T19:45:47.643Z,1.98
2022-11-01T19:48:21.120Z,1.95
2022-11-01T19:50:49.953Z,2.42
2022-11-01T19:53:23.065Z,1.98
2022-11-01T19:55:55.629Z,2.28
2022-11-01T19:58:39.087Z,2.38
2022-11-01T20:01:41.027Z,2.60
2022-11-01T20:04:29.585Z,2.42
2022-11-01T20:07:01.947Z,2.50
2022-11-01T20:09:32.089Z,2.72
2022-11-01T20:12:01.186Z,2.40
2022-11-01T20:14:29.133Z,1.98
2022-11-01T20:16:56.857Z,2.45
2022-11-01T20:19:24.605Z,2.45
2022-11-01T20:21:52.326Z,2.10
2022-11-01T20:24:20.255Z,2.05
2022-11-01T20:26:48.011Z,2.40
2022-11-01T20:29:17.287Z,2.08
2022-11-01T20:31:45.111Z,2.13
2022-11-01T20:34:13.060Z,2.40
2022-11-01T20:36:40.888Z,2.03
2022-11-01T20:39:12.989Z,1.90
2022-11-01T20:44:10.895Z,1.77
2022-11-01T20:46:39.966Z,2.50
2022-11-01T20:49:08.064Z,2.40
2022-11-01T20:51:35.808Z,2.60
2022-11-01T20:54:03.759Z,1.90
2022-11-01T20:56:31.455Z,1.95
2022-11-01T20:58:59.390Z,2.03
2022-11-01T21:01:27.963Z,2.28
2022-11-01T21:03:58.193Z,1.92
2022-11-01T21:06:32.340Z,2.22
2022-11-01T21:09:00.777Z,2.10
2022-11-01T21:11:43.552Z,1.85
2022-11-01T21:14:19.697Z,2.05
2022-11-01T21:16:48.943Z,2.17
2022-11-01T21:19:23.236Z,2.35
2022-11-01T21:21:54.469Z,2.40
2022-11-01T21:24:31.261Z,2.22
2022-11-01T21:27:27.533Z,2.20
2022-11-01T21:30:15.910Z,2.38
2022-11-01T21:32:46.056Z,2.25
2022-11-01T21:35:40.669Z,2.30
2022-11-01T21:38:32.982Z,1.77
2022-11-01T21:41:02.134Z,2.65
2022-11-01T21:43:35.060Z,2.65
2022-11-01T21:46:02.814Z,1.95
2022-11-01T21:48:31.406Z,2.83
2022-11-01T21:51:00.468Z,2.47
2022-11-01T21:53:28.257Z,2.50
2022-11-01T21:55:56.593Z,2.22
2022-11-01T21:58:24.329Z,2.22
2022-11-01T22:00:52.075Z,1.85
2022-11-01T22:03:19.811Z,2.30
2022-11-01T22:05:47.574Z,2.10
2022-11-01T22:08:16.923Z,2.10
2022-11-01T22:10:44.655Z,2.20
2022-11-01T22:13:12.689Z,2.42
2022-11-01T22:15:41.173Z,2.42
2022-11-01T22:18:08.951Z,2.88
2022-11-01T22:20:36.925Z,2.50
2022-11-01T22:23:04.953Z,2.00
2022-11-01T22:25:34.274Z,2.10
2022-11-01T22:28:02.145Z,2.20
2022-11-01T22:30:29.939Z,2.42
2022-11-01T22:32:57.644Z,2.28
2022-11-01T22:35:25.327Z,2.40
2022-11-01T22:37:53.054Z,2.35
2022-11-01T22:40:20.860Z,2.33
2022-11-01T22:42:57.633Z,2.63
2022-11-01T22:45:25.379Z,2.55
2022-11-01T22:47:53.223Z,2.65
2022-11-01T22:50:29.250Z,2.53
2022-11-01T22:52:56.988Z,2.42
2022-11-01T22:55:28.103Z,2.40
2022-11-01T22:58:04.174Z,1.90
2022-11-01T23:00:35.999Z,2.70
2022-11-01T23:03:20.168Z,2.05
2022-11-01T23:05:50.984Z,2.40
2022-11-01T23:08:26.972Z,2.63
2022-11-01T23:10:55.124Z,2.63
2022-11-01T23:13:46.932Z,2.63
2022-11-01T23:16:25.401Z,1.60
2022-11-01T23:18:57.792Z,2.50
2022-11-01T23:21:27.568Z,2.53
2022-11-01T23:23:55.984Z,2.30
2022-11-01T23:26:24.904Z,2.03
2022-11-01T23:28:58.233Z,2.72
2022-11-01T23:31:31.037Z,2.55
2022-11-01T23:33:58.803Z,2.13
2022-11-01T23:36:31.233Z,2.20
2022-11-01T23:39:03.259Z,1.92
2022-11-01T23:41:35.786Z,1.65
2022-11-01T23:44:19.562Z,1.88
2022-11-01T23:46:47.356Z,1.80
2022-11-01T23:49:23.894Z,1.70
2022-11-01T23:51:52.764Z,1.92
2022-11-01T23:54:27.583Z,1.55
2022-11-01T23:56:56.546Z,1.75
2022-11-01T23:59:26.691Z,1.75
